sensor_id;sensor_type;location;lat;lon;timestamp;pressure;altitude;pressure_sealevel;temperature;humidity
44988;BME280;35735;52.226;21.254;2022-09-27T00:04:34;99075.78;;;11.77;100.00
44988;BME280;35735;52.226;21.254;2022-09-27T00:09:35;99072.97;;;11.82;100.00
44988;BME280;35735;52.226;21.254;2022-09-27T00:14:36;99074.03;;;11.76;100.00
44988;BME280;35735;52.226;21.254;2022-09-27T00:19:37;99061.25;;;11.83;100.00
44988;BME280;35735;52.226;21.254;2022-09-27T00:24:37;99056.75;;;11.82;100.00
44988;BME280;35735;52.226;21.254;2022-09-27T00:29:38;99062.31;;;11.76;100.00
44988;BME280;35735;52.226;21.254;2022-09-27T00:34:39;99058.91;;;11.67;100.00
44988;BME280;35735;52.226;21.254;2022-09-27T00:39:40;99057.16;;;11.66;100.00
44988;BME280;35735;52.226;21.254;2022-09-27T00:49:47;99049.75;;;11.75;100.00
44988;BME280;35735;52.226;21.254;2022-09-27T00:54:59;99038.91;;;11.76;100.00
44988;BME280;35735;52.226;21.254;2022-09-27T01:00:09;99036.16;;;11.78;100.00
44988;BME280;35735;52.226;21.254;2022-09-27T01:05:14;99033.59;;;11.72;100.00
44988;BME280;35735;52.226;21.254;2022-09-27T01:10:17;99019.97;;;11.76;100.00
44988;BME280;35735;52.226;21.254;2022-09-27T01:15:33;99021.53;;;11.85;100.00
44988;BME280;35735;52.226;21.254;2022-09-27T01:26:45;99006.19;;;11.85;100.00
44988;BME280;35735;52.226;21.254;2022-09-27T01:32:16;99002.78;;;11.79;100.00
44988;BME280;35735;52.226;21.254;2022-09-27T01:37:29;99001.91;;;11.78;100.00
44988;BME280;35735;52.226;21.254;2022-09-27T01:42:46;98996.44;;;11.80;100.00
44988;BME280;35735;52.226;21.254;2022-09-27T01:47:54;98993.66;;;11.83;100.00
44988;BME280;35735;52.226;21.254;2022-09-27T01:53:28;98995.53;;;11.79;100.00
44988;BME280;35735;52.226;21.254;2022-09-27T01:58:33;98996.56;;;11.75;100.00
44988;BME280;35735;52.226;21.254;2022-09-27T02:03:41;99002.72;;;11.80;100.00
44988;BME280;35735;52.226;21.254;2022-09-27T02:09:07;98993.47;;;11.89;100.00
44988;BME280;35735;52.226;21.254;2022-09-27T02:25:19;98989.59;;;11.99;100.00
44988;BME280;35735;52.226;21.254;2022-09-27T02:30:22;98975.16;;;12.00;100.00
44988;BME280;35735;52.226;21.254;2022-09-27T02:35:34;98966.13;;;12.01;100.00
44988;BME280;35735;52.226;21.254;2022-09-27T02:40:42;98966.13;;;12.01;100.00
44988;BME280;35735;52.226;21.254;2022-09-27T02:51:59;98962.81;;;11.90;100.00
44988;BME280;35735;52.226;21.254;2022-09-27T02:57:40;98963.59;;;11.95;100.00
44988;BME280;35735;52.226;21.254;2022-09-27T03:03:02;98956.25;;;12.00;100.00
44988;BME280;35735;52.226;21.254;2022-09-27T03:08:08;98965.22;;;12.01;100.00
44988;BME280;35735;52.226;21.254;2022-09-27T03:13:10;98964.25;;;12.03;100.00
44988;BME280;35735;52.226;21.254;2022-09-27T03:18:11;98953.44;;;12.03;100.00
44988;BME280;35735;52.226;21.254;2022-09-27T03:23:12;98948.00;;;12.05;100.00
44988;BME280;35735;52.226;21.254;2022-09-27T03:28:13;98952.56;;;12.03;100.00
44988;BME280;35735;52.226;21.254;2022-09-27T03:33:14;98946.16;;;12.05;100.00
44988;BME280;35735;52.226;21.254;2022-09-27T03:38:14;98944.28;;;12.08;100.00
44988;BME280;35735;52.226;21.254;2022-09-27T03:43:15;98944.22;;;12.11;100.00
44988;BME280;35735;52.226;21.254;2022-09-27T03:48:15;98948.69;;;12.12;100.00
44988;BME280;35735;52.226;21.254;2022-09-27T03:53:16;98944.16;;;12.12;100.00
44988;BME280;35735;52.226;21.254;2022-09-27T03:58:17;98934.13;;;12.16;100.00
44988;BME280;35735;52.226;21.254;2022-09-27T04:03:17;98927.81;;;12.17;100.00
44988;BME280;35735;52.226;21.254;2022-09-27T04:08:18;98917.00;;;12.17;100.00
44988;BME280;35735;52.226;21.254;2022-09-27T04:13:19;98911.81;;;12.09;100.00
44988;BME280;35735;52.226;21.254;2022-09-27T04:18:19;98905.75;;;12.01;100.00
44988;BME280;35735;52.226;21.254;2022-09-27T04:23:20;98911.25;;;11.98;100.00
44988;BME280;35735;52.226;21.254;2022-09-27T04:28:21;98910.31;;;11.99;100.00
44988;BME280;35735;52.226;21.254;2022-09-27T04:33:21;98904.81;;;12.02;100.00
44988;BME280;35735;52.226;21.254;2022-09-27T04:38:22;98903.19;;;11.96;100.00
44988;BME280;35735;52.226;21.254;2022-09-27T04:43:23;98893.44;;;11.89;100.00
44988;BME280;35735;52.226;21.254;2022-09-27T04:48:23;98897.94;;;11.90;100.00
44988;BME280;35735;52.226;21.254;2022-09-27T04:53:24;98895.16;;;11.93;100.00
44988;BME280;35735;52.226;21.254;2022-09-27T04:58:25;98904.13;;;11.95;100.00
44988;BME280;35735;52.226;21.254;2022-09-27T05:03:25;98915.75;;;11.97;100.00
44988;BME280;35735;52.226;21.254;2022-09-27T05:08:26;98908.59;;;11.96;100.00
44988;BME280;35735;52.226;21.254;2022-09-27T05:13:27;98908.69;;;11.93;100.00
44988;BME280;35735;52.226;21.254;2022-09-27T05:18:27;98916.06;;;11.86;100.00
44988;BME280;35735;52.226;21.254;2022-09-27T05:23:28;98911.63;;;11.84;100.00
44988;BME280;35735;52.226;21.254;2022-09-27T05:28:28;98912.56;;;11.83;100.00
44988;BME280;35735;52.226;21.254;2022-09-27T05:33:29;98915.28;;;11.83;100.00
44988;BME280;35735;52.226;21.254;2022-09-27T05:38:29;98916.09;;;11.85;100.00
44988;BME280;35735;52.226;21.254;2022-09-27T05:43:30;98906.97;;;11.89;100.00
44988;BME280;35735;52.226;21.254;2022-09-27T05:48:31;98912.31;;;11.92;100.00
44988;BME280;35735;52.226;21.254;2022-09-27T05:53:31;98906.69;;;12.00;100.00
44988;BME280;35735;52.226;21.254;2022-09-27T05:58:32;98904.25;;;12.20;100.00
44988;BME280;35735;52.226;21.254;2022-09-27T06:03:33;98907.56;;;12.30;100.00
44988;BME280;35735;52.226;21.254;2022-09-27T06:08:36;98907.75;;;12.24;100.00
44988;BME280;35735;52.226;21.254;2022-09-27T06:13:38;98898.81;;;12.22;100.00
44988;BME280;35735;52.226;21.254;2022-09-27T06:18:44;98900.69;;;12.20;100.00
44988;BME280;35735;52.226;21.254;2022-09-27T06:23:44;98896.09;;;12.22;100.00
44988;BME280;35735;52.226;21.254;2022-09-27T06:28:45;98901.50;;;12.22;100.00
44988;BME280;35735;52.226;21.254;2022-09-27T06:33:46;98906.09;;;12.20;100.00
44988;BME280;35735;52.226;21.254;2022-09-27T06:38:47;98915.12;;;12.19;100.00
44988;BME280;35735;52.226;21.254;2022-09-27T06:43:48;98910.53;;;12.21;100.00
44988;BME280;35735;52.226;21.254;2022-09-27T06:48:48;98905.00;;;12.26;100.00
44988;BME280;35735;52.226;21.254;2022-09-27T06:53:49;98903.03;;;12.31;100.00
44988;BME280;35735;52.226;21.254;2022-09-27T06:58:50;98899.31;;;12.35;100.00
44988;BME280;35735;52.226;21.254;2022-09-27T07:03:50;98907.53;;;12.32;100.00
44988;BME280;35735;52.226;21.254;2022-09-27T07:08:52;98914.62;;;12.34;100.00
44988;BME280;35735;52.226;21.254;2022-09-27T07:13:55;98918.91;;;12.43;100.00
44988;BME280;35735;52.226;21.254;2022-09-27T07:18:56;98919.69;;;12.47;100.00
44988;BME280;35735;52.226;21.254;2022-09-27T07:23:57;98909.88;;;12.42;100.00
44988;BME280;35735;52.226;21.254;2022-09-27T07:28:57;98902.53;;;12.46;100.00
44988;BME280;35735;52.226;21.254;2022-09-27T07:33:58;98898.13;;;12.44;100.00
44988;BME280;35735;52.226;21.254;2022-09-27T07:38:59;98911.50;;;12.48;100.00
44988;BME280;35735;52.226;21.254;2022-09-27T07:43:59;98916.72;;;12.54;100.00
44988;BME280;35735;52.226;21.254;2022-09-27T07:49:00;98917.41;;;12.61;100.00
44988;BME280;35735;52.226;21.254;2022-09-27T07:54:01;98931.56;;;12.69;100.00
44988;BME280;35735;52.226;21.254;2022-09-27T07:59:04;98927.81;;;12.75;100.00
44988;BME280;35735;52.226;21.254;2022-09-27T08:04:13;98932.31;;;12.74;100.00
44988;BME280;35735;52.226;21.254;2022-09-27T08:09:17;98922.44;;;12.73;100.00
44988;BME280;35735;52.226;21.254;2022-09-27T08:14:18;98925.78;;;12.82;100.00
44988;BME280;35735;52.226;21.254;2022-09-27T08:19:18;98929.91;;;12.93;100.00
44988;BME280;35735;52.226;21.254;2022-09-27T08:24:20;98921.41;;;13.04;100.00
44988;BME280;35735;52.226;21.254;2022-09-27T08:29:21;98900.31;;;13.14;100.00
44988;BME280;35735;52.226;21.254;2022-09-27T08:34:22;98891.19;;;13.16;100.00
44988;BME280;35735;52.226;21.254;2022-09-27T08:39:22;98898.97;;;13.26;100.00
44988;BME280;35735;52.226;21.254;2022-09-27T08:50:31;98905.47;;;13.48;100.00
44988;BME280;35735;52.226;21.254;2022-09-27T08:55:39;98899.56;;;13.61;100.00
44988;BME280;35735;52.226;21.254;2022-09-27T09:00:41;98900.22;;;13.67;100.00
44988;BME280;35735;52.226;21.254;2022-09-27T09:05:41;98915.81;;;13.86;100.00
44988;BME280;35735;52.226;21.254;2022-09-27T09:11:05;98937.06;;;13.98;100.00
44988;BME280;35735;52.226;21.254;2022-09-27T09:16:28;98926.87;;;14.05;100.00
44988;BME280;35735;52.226;21.254;2022-09-27T09:33:17;98926.81;;;14.30;100.00
44988;BME280;35735;52.226;21.254;2022-09-27T09:38:05;98923.78;;;14.38;100.00
44988;BME280;35735;52.226;21.254;2022-09-27T09:43:21;98912.19;;;14.56;100.00
44988;BME280;35735;52.226;21.254;2022-09-27T09:48:35;98908.91;;;14.72;100.00
44988;BME280;35735;52.226;21.254;2022-09-27T09:54:12;98896.19;;;14.72;100.00
44988;BME280;35735;52.226;21.254;2022-09-27T09:59:23;98896.56;;;14.85;100.00
44988;BME280;35735;52.226;21.254;2022-09-27T10:04:27;98894.16;;;14.99;100.00
44988;BME280;35735;52.226;21.254;2022-09-27T10:09:28;98895.50;;;15.10;100.00
44988;BME280;35735;52.226;21.254;2022-09-27T10:14:29;98883.22;;;15.22;100.00
44988;BME280;35735;52.226;21.254;2022-09-27T10:19:32;98883.72;;;15.31;100.00
44988;BME280;35735;52.226;21.254;2022-09-27T10:24:55;98888.87;;;15.37;100.00
44988;BME280;35735;52.226;21.254;2022-09-27T10:29:58;98885.22;;;15.38;100.00
44988;BME280;35735;52.226;21.254;2022-09-27T10:35:18;98883.19;;;15.44;100.00
44988;BME280;35735;52.226;21.254;2022-09-27T10:40:32;98883.25;;;15.42;100.00
44988;BME280;35735;52.226;21.254;2022-09-27T10:45:33;98865.44;;;15.35;100.00
44988;BME280;35735;52.226;21.254;2022-09-27T10:50:33;98858.84;;;15.41;100.00
44988;BME280;35735;52.226;21.254;2022-09-27T10:55:35;98848.91;;;15.40;100.00
44988;BME280;35735;52.226;21.254;2022-09-27T11:00:36;98840.75;;;15.40;100.00
44988;BME280;35735;52.226;21.254;2022-09-27T11:05:37;98843.63;;;15.36;100.00
44988;BME280;35735;52.226;21.254;2022-09-27T11:10:38;98848.06;;;15.39;100.00
44988;BME280;35735;52.226;21.254;2022-09-27T11:16:33;98845.56;;;15.53;100.00
44988;BME280;35735;52.226;21.254;2022-09-27T11:21:49;98845.03;;;15.66;100.00
44988;BME280;35735;52.226;21.254;2022-09-27T11:43:45;98814.41;;;16.00;100.00
44988;BME280;35735;52.226;21.254;2022-09-27T11:59:52;98822.75;;;15.57;100.00
44988;BME280;35735;52.226;21.254;2022-09-27T12:05:41;98822.81;;;15.56;100.00
44988;BME280;35735;52.226;21.254;2022-09-27T12:11:16;98816.19;;;15.62;100.00
44988;BME280;35735;52.226;21.254;2022-09-27T12:16:21;98814.72;;;15.54;100.00
44988;BME280;35735;52.226;21.254;2022-09-27T12:21:24;98818.09;;;15.60;100.00
44988;BME280;35735;52.226;21.254;2022-09-27T12:26:33;98805.50;;;15.59;100.00
44988;BME280;35735;52.226;21.254;2022-09-27T12:31:42;98813.13;;;15.50;100.00
44988;BME280;35735;52.226;21.254;2022-09-27T12:36:58;98803.50;;;15.42;100.00
44988;BME280;35735;52.226;21.254;2022-09-27T12:42:11;98796.59;;;15.34;100.00
44988;BME280;35735;52.226;21.254;2022-09-27T12:47:52;98793.81;;;15.36;100.00
44988;BME280;35735;52.226;21.254;2022-09-27T12:53:19;98798.06;;;15.42;100.00
44988;BME280;35735;52.226;21.254;2022-09-27T12:58:40;98792.56;;;15.43;100.00
44988;BME280;35735;52.226;21.254;2022-09-27T13:04:03;98777.69;;;15.52;100.00
44988;BME280;35735;52.226;21.254;2022-09-27T13:09:35;98774.00;;;15.53;100.00
44988;BME280;35735;52.226;21.254;2022-09-27T13:14:58;98767.63;;;15.54;100.00
44988;BME280;35735;52.226;21.254;2022-09-27T13:25:51;98761.66;;;15.46;100.00
44988;BME280;35735;52.226;21.254;2022-09-27T13:31:04;98758.34;;;15.39;100.00
44988;BME280;35735;52.226;21.254;2022-09-27T13:36:19;98754.16;;;15.51;100.00
44988;BME280;35735;52.226;21.254;2022-09-27T13:46:55;98746.69;;;15.56;100.00
44988;BME280;35735;52.226;21.254;2022-09-27T13:52:04;98737.13;;;15.66;100.00
44988;BME280;35735;52.226;21.254;2022-09-27T13:57:42;98733.47;;;15.67;100.00
44988;BME280;35735;52.226;21.254;2022-09-27T14:03:01;98722.25;;;15.73;100.00
44988;BME280;35735;52.226;21.254;2022-09-27T14:08:06;98721.06;;;15.81;100.00
44988;BME280;35735;52.226;21.254;2022-09-27T14:13:24;98720.34;;;15.77;100.00
44988;BME280;35735;52.226;21.254;2022-09-27T14:18:27;98717.94;;;15.69;100.00
44988;BME280;35735;52.226;21.254;2022-09-27T14:23:28;98718.53;;;15.57;100.00
44988;BME280;35735;52.226;21.254;2022-09-27T14:28:38;98714.91;;;15.37;100.00
44988;BME280;35735;52.226;21.254;2022-09-27T14:33:43;98712.53;;;15.30;100.00
44988;BME280;35735;52.226;21.254;2022-09-27T14:38:44;98709.03;;;15.28;100.00
44988;BME280;35735;52.226;21.254;2022-09-27T14:43:46;98706.91;;;15.34;100.00
44988;BME280;35735;52.226;21.254;2022-09-27T14:48:46;98713.13;;;15.36;100.00
44988;BME280;35735;52.226;21.254;2022-09-27T14:53:50;98706.97;;;15.33;100.00
44988;BME280;35735;52.226;21.254;2022-09-27T14:58:54;98700.81;;;15.29;100.00
44988;BME280;35735;52.226;21.254;2022-09-27T15:04:10;98705.66;;;15.42;100.00
44988;BME280;35735;52.226;21.254;2022-09-27T15:09:14;98701.41;;;15.36;100.00
44988;BME280;35735;52.226;21.254;2022-09-27T15:14:16;98707.72;;;15.36;100.00
44988;BME280;35735;52.226;21.254;2022-09-27T15:19:22;98709.62;;;15.34;100.00
44988;BME280;35735;52.226;21.254;2022-09-27T15:29:49;98706.37;;;15.26;100.00
44988;BME280;35735;52.226;21.254;2022-09-27T15:34:51;98703.59;;;15.28;100.00
44988;BME280;35735;52.226;21.254;2022-09-27T15:39:52;98705.56;;;15.24;100.00
44988;BME280;35735;52.226;21.254;2022-09-27T15:44:54;98700.47;;;15.16;100.00
44988;BME280;35735;52.226;21.254;2022-09-27T15:49:55;98698.28;;;15.06;100.00
44988;BME280;35735;52.226;21.254;2022-09-27T15:54:55;98701.25;;;14.99;100.00
44988;BME280;35735;52.226;21.254;2022-09-27T15:59:56;98700.06;;;14.86;100.00
44988;BME280;35735;52.226;21.254;2022-09-27T16:04:56;98692.34;;;14.77;100.00
44988;BME280;35735;52.226;21.254;2022-09-27T16:09:57;98685.69;;;14.63;100.00
44988;BME280;35735;52.226;21.254;2022-09-27T16:14:57;98678.84;;;14.53;100.00
44988;BME280;35735;52.226;21.254;2022-09-27T16:19:58;98673.97;;;14.41;100.00
44988;BME280;35735;52.226;21.254;2022-09-27T16:24:58;98676.00;;;14.36;100.00
44988;BME280;35735;52.226;21.254;2022-09-27T16:29:59;98680.19;;;14.22;100.00
44988;BME280;35735;52.226;21.254;2022-09-27T16:35:00;98671.72;;;14.08;100.00
44988;BME280;35735;52.226;21.254;2022-09-27T16:40:02;98674.03;;;13.97;100.00
44988;BME280;35735;52.226;21.254;2022-09-27T16:45:05;98677.94;;;13.89;100.00
44988;BME280;35735;52.226;21.254;2022-09-27T16:50:06;98683.22;;;13.93;100.00
44988;BME280;35735;52.226;21.254;2022-09-27T16:55:08;98680.56;;;13.91;100.00
44988;BME280;35735;52.226;21.254;2022-09-27T17:00:10;98681.50;;;13.92;100.00
44988;BME280;35735;52.226;21.254;2022-09-27T17:05:11;98681.31;;;13.95;100.00
44988;BME280;35735;52.226;21.254;2022-09-27T17:10:12;98674.41;;;13.87;100.00
44988;BME280;35735;52.226;21.254;2022-09-27T17:15:13;98680.75;;;13.86;100.00
44988;BME280;35735;52.226;21.254;2022-09-27T17:20:14;98676.44;;;13.82;100.00
44988;BME280;35735;52.226;21.254;2022-09-27T17:25:15;98682.22;;;13.73;100.00
44988;BME280;35735;52.226;21.254;2022-09-27T17:30:16;98680.59;;;13.69;100.00
44988;BME280;35735;52.226;21.254;2022-09-27T17:35:16;98689.66;;;13.68;100.00
44988;BME280;35735;52.226;21.254;2022-09-27T17:40:17;98693.44;;;13.64;100.00
44988;BME280;35735;52.226;21.254;2022-09-27T17:45:17;98691.03;;;13.56;100.00
44988;BME280;35735;52.226;21.254;2022-09-27T17:50:18;98691.41;;;13.47;100.00
44988;BME280;35735;52.226;21.254;2022-09-27T17:55:19;98694.41;;;13.39;100.00
44988;BME280;35735;52.226;21.254;2022-09-27T18:00:20;98689.22;;;13.33;100.00
44988;BME280;35735;52.226;21.254;2022-09-27T18:05:20;98690.44;;;13.24;100.00
44988;BME280;35735;52.226;21.254;2022-09-27T18:10:21;98693.44;;;13.16;100.00
44988;BME280;35735;52.226;21.254;2022-09-27T18:15:21;98698.72;;;12.96;100.00
44988;BME280;35735;52.226;21.254;2022-09-27T18:20:22;98687.16;;;12.91;100.00
44988;BME280;35735;52.226;21.254;2022-09-27T18:25:22;98682.94;;;12.84;100.00
44988;BME280;35735;52.226;21.254;2022-09-27T18:30:23;98693.16;;;12.75;100.00
44988;BME280;35735;52.226;21.254;2022-09-27T18:35:23;98686.09;;;12.71;100.00
44988;BME280;35735;52.226;21.254;2022-09-27T18:40:24;98685.56;;;12.62;100.00
44988;BME280;35735;52.226;21.254;2022-09-27T18:45:25;98689.41;;;12.54;100.00
44988;BME280;35735;52.226;21.254;2022-09-27T18:50:25;98693.09;;;12.52;100.00
44988;BME280;35735;52.226;21.254;2022-09-27T18:55:26;98686.22;;;12.43;100.00
44988;BME280;35735;52.226;21.254;2022-09-27T19:00:26;98682.22;;;12.28;100.00
44988;BME280;35735;52.226;21.254;2022-09-27T19:05:27;98687.16;;;12.15;100.00
44988;BME280;35735;52.226;21.254;2022-09-27T19:10:27;98691.88;;;12.09;100.00
44988;BME280;35735;52.226;21.254;2022-09-27T19:15:28;98679.19;;;12.11;100.00
44988;BME280;35735;52.226;21.254;2022-09-27T19:20:28;98682.03;;;12.06;100.00
44988;BME280;35735;52.226;21.254;2022-09-27T19:25:29;98675.00;;;12.02;100.00
44988;BME280;35735;52.226;21.254;2022-09-27T19:30:30;98672.34;;;12.00;100.00
44988;BME280;35735;52.226;21.254;2022-09-27T19:35:31;98675.63;;;12.10;100.00
44988;BME280;35735;52.226;21.254;2022-09-27T19:40:32;98663.78;;;12.13;100.00
44988;BME280;35735;52.226;21.254;2022-09-27T19:45:35;98667.75;;;12.02;100.00
44988;BME280;35735;52.226;21.254;2022-09-27T19:50:36;98668.91;;;11.95;100.00
44988;BME280;35735;52.226;21.254;2022-09-27T19:55:36;98654.56;;;11.93;100.00
44988;BME280;35735;52.226;21.254;2022-09-27T20:00:37;98655.47;;;11.92;100.00
44988;BME280;35735;52.226;21.254;2022-09-27T20:05:37;98653.59;;;11.94;100.00
44988;BME280;35735;52.226;21.254;2022-09-27T20:10:38;98638.34;;;11.93;100.00
44988;BME280;35735;52.226;21.254;2022-09-27T20:15:38;98625.91;;;11.86;100.00
44988;BME280;35735;52.226;21.254;2022-09-27T20:20:39;98620.72;;;11.80;100.00
44988;BME280;35735;52.226;21.254;2022-09-27T20:25:39;98618.94;;;11.79;100.00
44988;BME280;35735;52.226;21.254;2022-09-27T20:30:40;98626.97;;;11.82;100.00
44988;BME280;35735;52.226;21.254;2022-09-27T20:35:51;98611.41;;;11.89;100.00
44988;BME280;35735;52.226;21.254;2022-09-27T20:40:54;98605.91;;;11.93;100.00
44988;BME280;35735;52.226;21.254;2022-09-27T20:46:09;98614.72;;;11.98;100.00
44988;BME280;35735;52.226;21.254;2022-09-27T20:51:12;98621.69;;;12.05;100.00
44988;BME280;35735;52.226;21.254;2022-09-27T20:56:26;98613.22;;;12.16;100.00
44988;BME280;35735;52.226;21.254;2022-09-27T21:01:29;98621.03;;;12.24;100.00
44988;BME280;35735;52.226;21.254;2022-09-27T21:06:31;98621.47;;;12.37;100.00
44988;BME280;35735;52.226;21.254;2022-09-27T21:11:32;98609.56;;;12.42;100.00
44988;BME280;35735;52.226;21.254;2022-09-27T21:16:34;98593.16;;;12.47;100.00
44988;BME280;35735;52.226;21.254;2022-09-27T21:21:35;98597.69;;;12.47;100.00
44988;BME280;35735;52.226;21.254;2022-09-27T21:26:35;98584.37;;;12.40;100.00
44988;BME280;35735;52.226;21.254;2022-09-27T21:31:36;98587.34;;;12.33;100.00
44988;BME280;35735;52.226;21.254;2022-09-27T21:36:37;98590.00;;;12.34;100.00
44988;BME280;35735;52.226;21.254;2022-09-27T21:41:38;98580.84;;;12.38;100.00
44988;BME280;35735;52.226;21.254;2022-09-27T21:46:40;98573.66;;;12.37;100.00
44988;BME280;35735;52.226;21.254;2022-09-27T21:51:41;98575.75;;;12.29;100.00
44988;BME280;35735;52.226;21.254;2022-09-27T21:56:43;98564.34;;;12.21;100.00
44988;BME280;35735;52.226;21.254;2022-09-27T22:01:44;98547.50;;;12.13;100.00
44988;BME280;35735;52.226;21.254;2022-09-27T22:06:45;98542.09;;;12.13;100.00
44988;BME280;35735;52.226;21.254;2022-09-27T22:11:45;98542.09;;;12.13;100.00
44988;BME280;35735;52.226;21.254;2022-09-27T22:16:46;98549.22;;;12.15;100.00
44988;BME280;35735;52.226;21.254;2022-09-27T22:21:47;98557.19;;;12.20;100.00
44988;BME280;35735;52.226;21.254;2022-09-27T22:26:49;98549.62;;;12.30;100.00
44988;BME280;35735;52.226;21.254;2022-09-27T22:31:50;98539.31;;;12.39;100.00
44988;BME280;35735;52.226;21.254;2022-09-27T22:36:50;98538.28;;;12.44;100.00
44988;BME280;35735;52.226;21.254;2022-09-27T22:41:51;98530.37;;;12.37;100.00
44988;BME280;35735;52.226;21.254;2022-09-27T22:46:51;98537.34;;;12.45;100.00
44988;BME280;35735;52.226;21.254;2022-09-27T22:51:52;98537.22;;;12.48;100.00
44988;BME280;35735;52.226;21.254;2022-09-27T22:56:52;98525.47;;;12.49;100.00
44988;BME280;35735;52.226;21.254;2022-09-27T23:01:54;98520.75;;;12.54;100.00
44988;BME280;35735;52.226;21.254;2022-09-27T23:06:54;98517.00;;;12.58;100.00
44988;BME280;35735;52.226;21.254;2022-09-27T23:11:55;98511.44;;;12.61;100.00
44988;BME280;35735;52.226;21.254;2022-09-27T23:16:56;98513.22;;;12.62;100.00
44988;BME280;35735;52.226;21.254;2022-09-27T23:21:57;98515.00;;;12.63;100.00
44988;BME280;35735;52.226;21.254;2022-09-27T23:26:57;98510.50;;;12.62;100.00
44988;BME280;35735;52.226;21.254;2022-09-27T23:31:58;98511.44;;;12.61;100.00
44988;BME280;35735;52.226;21.254;2022-09-27T23:36:59;98515.00;;;12.63;100.00
44988;BME280;35735;52.226;21.254;2022-09-27T23:41:59;98502.41;;;12.62;100.00
44988;BME280;35735;52.226;21.254;2022-09-27T23:47:00;98489.69;;;12.64;100.00
44988;BME280;35735;52.226;21.254;2022-09-27T23:52:00;98486.03;;;12.65;100.00
44988;BME280;35735;52.226;21.254;2022-09-27T23:57:01;98486.84;;;12.67;100.00
